LKKV

Karlovy Vary International Airport

Karlovy Vary, Czech Republic
METAR LKKV 212100Z VRB02KT CAVOK 02/01 Q1027
Observed Flight Rules
Oct-21 @ 21:00 UTC (43 minutes ago) Visual Flight Rules
Wind Visibility Clouds
Variable at 2 knots 10,000+ meters
  • Clear skies
Temperatures Readings
Current 2°C / 36°F
Dewpoint 1°C / 34°F
Humidity 93%
Altimeter 30.32" Hg
Pressure 1027 hPa
Elevation 604
METAR LKKV 212100Z VRB02KT CAVOK 02/01 Q1027
Observed Flight Rules
Oct-21 @ 21:00 UTC
(43 minutes ago)
VFR
Wind Visibility
Variable at 2 knots 10,000+ meters
Clouds
  • Clear skies
Temperature Dewpoint
2°C / 36°F 1°C / 34°F
Humidity Altimeter Pressure
93% 30.32" Hg 1027 hPa